sensor_id;sensor_type;location;lat;lon;timestamp;P1;durP1;ratioP1;P2;durP2;ratioP2
5199;SDS011;2619;47.868;11.892;2023-05-28T00:00:05;10.50;;;6.37;;
5199;SDS011;2619;47.868;11.892;2023-05-28T00:02:32;11.97;;;7.13;;
5199;SDS011;2619;47.868;11.892;2023-05-28T00:04:58;12.23;;;6.47;;
5199;SDS011;2619;47.868;11.892;2023-05-28T00:07:24;13.10;;;6.70;;
5199;SDS011;2619;47.868;11.892;2023-05-28T00:09:50;12.87;;;6.80;;
5199;SDS011;2619;47.868;11.892;2023-05-28T00:12:15;13.43;;;7.80;;
5199;SDS011;2619;47.868;11.892;2023-05-28T00:14:42;14.80;;;8.27;;
5199;SDS011;2619;47.868;11.892;2023-05-28T00:17:07;8.10;;;6.23;;
5199;SDS011;2619;47.868;11.892;2023-05-28T00:19:34;13.57;;;6.97;;
5199;SDS011;2619;47.868;11.892;2023-05-28T00:21:59;14.63;;;6.93;;
5199;SDS011;2619;47.868;11.892;2023-05-28T00:24:25;11.27;;;7.10;;
5199;SDS011;2619;47.868;11.892;2023-05-28T00:26:51;13.07;;;6.93;;
5199;SDS011;2619;47.868;11.892;2023-05-28T00:29:17;10.93;;;6.70;;
5199;SDS011;2619;47.868;11.892;2023-05-28T00:31:42;12.60;;;6.43;;
5199;SDS011;2619;47.868;11.892;2023-05-28T00:34:08;12.03;;;7.20;;
5199;SDS011;2619;47.868;11.892;2023-05-28T00:36:33;16.50;;;7.53;;
5199;SDS011;2619;47.868;11.892;2023-05-28T00:39:00;13.83;;;6.67;;
5199;SDS011;2619;47.868;11.892;2023-05-28T00:41:29;9.87;;;7.40;;
5199;SDS011;2619;47.868;11.892;2023-05-28T00:43:56;16.83;;;7.33;;
5199;SDS011;2619;47.868;11.892;2023-05-28T00:46:21;9.27;;;7.13;;
5199;SDS011;2619;47.868;11.892;2023-05-28T00:48:48;10.73;;;7.43;;
5199;SDS011;2619;47.868;11.892;2023-05-28T00:51:15;11.87;;;7.80;;
5199;SDS011;2619;47.868;11.892;2023-05-28T00:53:42;9.33;;;7.00;;
5199;SDS011;2619;47.868;11.892;2023-05-28T00:56:08;12.90;;;7.53;;
5199;SDS011;2619;47.868;11.892;2023-05-28T00:58:38;10.30;;;7.30;;
5199;SDS011;2619;47.868;11.892;2023-05-28T01:01:07;10.60;;;8.03;;
5199;SDS011;2619;47.868;11.892;2023-05-28T01:03:35;15.43;;;8.67;;
5199;SDS011;2619;47.868;11.892;2023-05-28T01:06:07;12.97;;;7.00;;
5199;SDS011;2619;47.868;11.892;2023-05-28T01:08:36;13.17;;;8.17;;
5199;SDS011;2619;47.868;11.892;2023-05-28T01:11:03;10.30;;;7.40;;
5199;SDS011;2619;47.868;11.892;2023-05-28T01:13:30;12.97;;;7.70;;
5199;SDS011;2619;47.868;11.892;2023-05-28T01:15:56;11.20;;;7.97;;
5199;SDS011;2619;47.868;11.892;2023-05-28T01:18:23;11.63;;;6.83;;
5199;SDS011;2619;47.868;11.892;2023-05-28T01:20:49;10.70;;;8.37;;
5199;SDS011;2619;47.868;11.892;2023-05-28T01:23:16;15.20;;;8.00;;
5199;SDS011;2619;47.868;11.892;2023-05-28T01:25:45;10.67;;;7.47;;
5199;SDS011;2619;47.868;11.892;2023-05-28T01:28:15;15.47;;;8.00;;
5199;SDS011;2619;47.868;11.892;2023-05-28T01:30:41;12.73;;;8.57;;
5199;SDS011;2619;47.868;11.892;2023-05-28T01:33:08;11.80;;;7.90;;
5199;SDS011;2619;47.868;11.892;2023-05-28T01:35:36;12.87;;;7.40;;
5199;SDS011;2619;47.868;11.892;2023-05-28T01:38:05;16.33;;;8.03;;
5199;SDS011;2619;47.868;11.892;2023-05-28T01:40:34;14.40;;;8.40;;
5199;SDS011;2619;47.868;11.892;2023-05-28T01:43:01;11.33;;;7.70;;
5199;SDS011;2619;47.868;11.892;2023-05-28T01:45:27;14.10;;;8.60;;
5199;SDS011;2619;47.868;11.892;2023-05-28T01:47:54;14.43;;;7.93;;
5199;SDS011;2619;47.868;11.892;2023-05-28T01:50:20;11.17;;;7.83;;
5199;SDS011;2619;47.868;11.892;2023-05-28T01:52:46;13.30;;;8.57;;
5199;SDS011;2619;47.868;11.892;2023-05-28T01:55:11;12.00;;;7.47;;
5199;SDS011;2619;47.868;11.892;2023-05-28T01:57:38;13.30;;;8.10;;
5199;SDS011;2619;47.868;11.892;2023-05-28T02:00:06;12.60;;;8.47;;
5199;SDS011;2619;47.868;11.892;2023-05-28T02:02:33;16.93;;;8.27;;
5199;SDS011;2619;47.868;11.892;2023-05-28T02:04:59;13.40;;;7.47;;
5199;SDS011;2619;47.868;11.892;2023-05-28T02:07:25;11.00;;;7.47;;
5199;SDS011;2619;47.868;11.892;2023-05-28T02:09:51;12.57;;;7.70;;
5199;SDS011;2619;47.868;11.892;2023-05-28T02:12:16;12.60;;;8.40;;
5199;SDS011;2619;47.868;11.892;2023-05-28T02:14:43;12.70;;;7.80;;
5199;SDS011;2619;47.868;11.892;2023-05-28T02:17:09;11.47;;;7.03;;
5199;SDS011;2619;47.868;11.892;2023-05-28T02:19:35;14.90;;;9.10;;
5199;SDS011;2619;47.868;11.892;2023-05-28T02:22:01;12.93;;;8.00;;
5199;SDS011;2619;47.868;11.892;2023-05-28T02:24:35;12.20;;;7.47;;
5199;SDS011;2619;47.868;11.892;2023-05-28T02:27:00;14.87;;;8.17;;
5199;SDS011;2619;47.868;11.892;2023-05-28T02:29:26;10.87;;;7.57;;
5199;SDS011;2619;47.868;11.892;2023-05-28T02:31:52;11.57;;;8.00;;
5199;SDS011;2619;47.868;11.892;2023-05-28T02:34:17;13.80;;;8.00;;
5199;SDS011;2619;47.868;11.892;2023-05-28T02:36:43;14.70;;;8.33;;
5199;SDS011;2619;47.868;11.892;2023-05-28T02:39:08;10.10;;;6.60;;
5199;SDS011;2619;47.868;11.892;2023-05-28T02:41:35;13.20;;;8.30;;
5199;SDS011;2619;47.868;11.892;2023-05-28T02:44:01;11.37;;;7.03;;
5199;SDS011;2619;47.868;11.892;2023-05-28T02:46:26;11.80;;;8.37;;
5199;SDS011;2619;47.868;11.892;2023-05-28T02:48:52;13.93;;;8.27;;
5199;SDS011;2619;47.868;11.892;2023-05-28T02:51:18;13.83;;;8.00;;
5199;SDS011;2619;47.868;11.892;2023-05-28T02:53:43;11.27;;;7.40;;
5199;SDS011;2619;47.868;11.892;2023-05-28T02:56:10;11.40;;;7.17;;
5199;SDS011;2619;47.868;11.892;2023-05-28T02:58:35;11.67;;;7.30;;
5199;SDS011;2619;47.868;11.892;2023-05-28T03:01:02;13.83;;;8.00;;
5199;SDS011;2619;47.868;11.892;2023-05-28T03:03:28;13.33;;;7.70;;
5199;SDS011;2619;47.868;11.892;2023-05-28T03:05:53;13.40;;;8.17;;
5199;SDS011;2619;47.868;11.892;2023-05-28T03:08:19;13.83;;;7.43;;
5199;SDS011;2619;47.868;11.892;2023-05-28T03:10:45;14.77;;;7.30;;
5199;SDS011;2619;47.868;11.892;2023-05-28T03:13:10;15.03;;;7.67;;
5199;SDS011;2619;47.868;11.892;2023-05-28T03:15:36;16.50;;;7.87;;
5199;SDS011;2619;47.868;11.892;2023-05-28T03:18:02;13.33;;;7.50;;
5199;SDS011;2619;47.868;11.892;2023-05-28T03:20:28;13.30;;;7.70;;
5199;SDS011;2619;47.868;11.892;2023-05-28T03:22:55;13.13;;;8.30;;
5199;SDS011;2619;47.868;11.892;2023-05-28T03:25:22;14.83;;;8.30;;
5199;SDS011;2619;47.868;11.892;2023-05-28T03:27:48;12.97;;;8.10;;
5199;SDS011;2619;47.868;11.892;2023-05-28T03:30:14;18.87;;;8.60;;
5199;SDS011;2619;47.868;11.892;2023-05-28T03:32:40;14.80;;;9.00;;
5199;SDS011;2619;47.868;11.892;2023-05-28T03:35:06;11.63;;;8.00;;
5199;SDS011;2619;47.868;11.892;2023-05-28T03:37:32;11.10;;;7.37;;
5199;SDS011;2619;47.868;11.892;2023-05-28T03:39:58;15.27;;;8.30;;
5199;SDS011;2619;47.868;11.892;2023-05-28T03:42:23;21.03;;;7.70;;
5199;SDS011;2619;47.868;11.892;2023-05-28T03:44:49;13.77;;;7.43;;
5199;SDS011;2619;47.868;11.892;2023-05-28T03:47:15;14.50;;;8.20;;
5199;SDS011;2619;47.868;11.892;2023-05-28T03:49:41;14.47;;;9.03;;
5199;SDS011;2619;47.868;11.892;2023-05-28T03:52:06;21.37;;;13.80;;
5199;SDS011;2619;47.868;11.892;2023-05-28T03:54:32;30.43;;;17.07;;
5199;SDS011;2619;47.868;11.892;2023-05-28T03:56:58;13.40;;;8.77;;
5199;SDS011;2619;47.868;11.892;2023-05-28T03:59:24;19.53;;;11.90;;
5199;SDS011;2619;47.868;11.892;2023-05-28T04:01:49;18.17;;;12.40;;
5199;SDS011;2619;47.868;11.892;2023-05-28T04:04:15;15.33;;;10.27;;
5199;SDS011;2619;47.868;11.892;2023-05-28T04:06:41;15.57;;;9.43;;
5199;SDS011;2619;47.868;11.892;2023-05-28T04:09:07;11.80;;;7.77;;
5199;SDS011;2619;47.868;11.892;2023-05-28T04:11:33;28.10;;;16.67;;
5199;SDS011;2619;47.868;11.892;2023-05-28T04:14:00;26.43;;;14.53;;
5199;SDS011;2619;47.868;11.892;2023-05-28T04:16:26;12.27;;;9.27;;
5199;SDS011;2619;47.868;11.892;2023-05-28T04:18:52;11.27;;;7.83;;
5199;SDS011;2619;47.868;11.892;2023-05-28T04:21:18;16.07;;;7.80;;
5199;SDS011;2619;47.868;11.892;2023-05-28T04:23:46;12.50;;;8.47;;
5199;SDS011;2619;47.868;11.892;2023-05-28T04:26:12;20.03;;;8.90;;
5199;SDS011;2619;47.868;11.892;2023-05-28T04:28:38;13.90;;;9.20;;
5199;SDS011;2619;47.868;11.892;2023-05-28T04:31:04;14.60;;;6.77;;
5199;SDS011;2619;47.868;11.892;2023-05-28T04:33:29;11.23;;;7.73;;
5199;SDS011;2619;47.868;11.892;2023-05-28T04:35:55;10.07;;;7.17;;
5199;SDS011;2619;47.868;11.892;2023-05-28T04:38:25;9.77;;;7.00;;
5199;SDS011;2619;47.868;11.892;2023-05-28T04:40:56;9.47;;;6.70;;
5199;SDS011;2619;47.868;11.892;2023-05-28T04:43:22;8.37;;;5.00;;
5199;SDS011;2619;47.868;11.892;2023-05-28T04:45:48;8.47;;;5.90;;
5199;SDS011;2619;47.868;11.892;2023-05-28T04:48:14;9.60;;;5.90;;
5199;SDS011;2619;47.868;11.892;2023-05-28T04:50:40;8.40;;;6.13;;
5199;SDS011;2619;47.868;11.892;2023-05-28T04:53:06;6.30;;;4.80;;
5199;SDS011;2619;47.868;11.892;2023-05-28T04:55:32;7.80;;;5.60;;
5199;SDS011;2619;47.868;11.892;2023-05-28T04:57:57;9.20;;;5.30;;
5199;SDS011;2619;47.868;11.892;2023-05-28T05:00:23;8.00;;;5.50;;
5199;SDS011;2619;47.868;11.892;2023-05-28T05:02:51;7.73;;;5.67;;
5199;SDS011;2619;47.868;11.892;2023-05-28T05:05:18;8.90;;;5.50;;
5199;SDS011;2619;47.868;11.892;2023-05-28T05:07:44;6.37;;;4.83;;
5199;SDS011;2619;47.868;11.892;2023-05-28T05:10:10;10.00;;;4.97;;
5199;SDS011;2619;47.868;11.892;2023-05-28T05:12:36;8.33;;;5.37;;
5199;SDS011;2619;47.868;11.892;2023-05-28T05:15:03;8.03;;;4.47;;
5199;SDS011;2619;47.868;11.892;2023-05-28T05:17:30;7.40;;;5.30;;
5199;SDS011;2619;47.868;11.892;2023-05-28T05:19:57;8.80;;;4.93;;
5199;SDS011;2619;47.868;11.892;2023-05-28T05:22:23;10.23;;;5.23;;
5199;SDS011;2619;47.868;11.892;2023-05-28T05:24:48;7.03;;;4.47;;
5199;SDS011;2619;47.868;11.892;2023-05-28T05:27:14;8.13;;;5.33;;
5199;SDS011;2619;47.868;11.892;2023-05-28T05:29:40;7.63;;;5.13;;
5199;SDS011;2619;47.868;11.892;2023-05-28T05:32:06;7.17;;;5.37;;
5199;SDS011;2619;47.868;11.892;2023-05-28T05:34:33;10.37;;;6.00;;
5199;SDS011;2619;47.868;11.892;2023-05-28T05:36:58;7.40;;;4.53;;
5199;SDS011;2619;47.868;11.892;2023-05-28T05:39:25;6.27;;;4.87;;
5199;SDS011;2619;47.868;11.892;2023-05-28T05:41:50;8.33;;;5.13;;
5199;SDS011;2619;47.868;11.892;2023-05-28T05:44:16;13.67;;;6.43;;
5199;SDS011;2619;47.868;11.892;2023-05-28T05:46:41;8.33;;;5.43;;
5199;SDS011;2619;47.868;11.892;2023-05-28T05:49:08;10.17;;;4.77;;
5199;SDS011;2619;47.868;11.892;2023-05-28T05:51:34;9.80;;;5.43;;
5199;SDS011;2619;47.868;11.892;2023-05-28T05:54:00;9.40;;;5.73;;
5199;SDS011;2619;47.868;11.892;2023-05-28T05:56:27;10.80;;;4.70;;
5199;SDS011;2619;47.868;11.892;2023-05-28T05:58:53;7.57;;;5.00;;
5199;SDS011;2619;47.868;11.892;2023-05-28T06:01:19;12.93;;;5.70;;
5199;SDS011;2619;47.868;11.892;2023-05-28T06:03:45;8.60;;;5.03;;
5199;SDS011;2619;47.868;11.892;2023-05-28T06:06:11;13.60;;;5.93;;
5199;SDS011;2619;47.868;11.892;2023-05-28T06:08:37;6.80;;;5.20;;
5199;SDS011;2619;47.868;11.892;2023-05-28T06:11:04;11.97;;;5.00;;
5199;SDS011;2619;47.868;11.892;2023-05-28T06:13:29;13.20;;;5.77;;
5199;SDS011;2619;47.868;11.892;2023-05-28T06:15:55;12.90;;;6.33;;
5199;SDS011;2619;47.868;11.892;2023-05-28T06:18:21;9.00;;;5.50;;
5199;SDS011;2619;47.868;11.892;2023-05-28T06:20:46;13.07;;;5.80;;
5199;SDS011;2619;47.868;11.892;2023-05-28T06:23:14;11.83;;;6.20;;
5199;SDS011;2619;47.868;11.892;2023-05-28T06:25:40;9.57;;;5.87;;
5199;SDS011;2619;47.868;11.892;2023-05-28T06:28:06;10.17;;;5.47;;
5199;SDS011;2619;47.868;11.892;2023-05-28T06:30:32;12.40;;;5.90;;
5199;SDS011;2619;47.868;11.892;2023-05-28T06:32:58;8.57;;;5.17;;
5199;SDS011;2619;47.868;11.892;2023-05-28T06:35:23;9.27;;;5.47;;
5199;SDS011;2619;47.868;11.892;2023-05-28T06:37:49;10.67;;;5.47;;
5199;SDS011;2619;47.868;11.892;2023-05-28T06:40:15;9.37;;;6.00;;
5199;SDS011;2619;47.868;11.892;2023-05-28T06:42:40;9.50;;;5.47;;
5199;SDS011;2619;47.868;11.892;2023-05-28T06:45:06;9.17;;;5.60;;
5199;SDS011;2619;47.868;11.892;2023-05-28T06:47:32;10.97;;;5.60;;
5199;SDS011;2619;47.868;11.892;2023-05-28T06:49:58;8.63;;;6.00;;
5199;SDS011;2619;47.868;11.892;2023-05-28T06:52:24;10.90;;;5.93;;
5199;SDS011;2619;47.868;11.892;2023-05-28T06:54:50;9.30;;;5.77;;
5199;SDS011;2619;47.868;11.892;2023-05-28T06:57:16;8.97;;;5.50;;
5199;SDS011;2619;47.868;11.892;2023-05-28T06:59:42;8.30;;;5.33;;
5199;SDS011;2619;47.868;11.892;2023-05-28T07:02:07;8.13;;;5.77;;
5199;SDS011;2619;47.868;11.892;2023-05-28T07:04:33;9.43;;;5.70;;
5199;SDS011;2619;47.868;11.892;2023-05-28T07:06:58;11.70;;;5.90;;
5199;SDS011;2619;47.868;11.892;2023-05-28T07:09:24;10.43;;;6.33;;
5199;SDS011;2619;47.868;11.892;2023-05-28T07:11:50;10.53;;;5.60;;
5199;SDS011;2619;47.868;11.892;2023-05-28T07:14:16;11.83;;;5.83;;
5199;SDS011;2619;47.868;11.892;2023-05-28T07:16:41;9.07;;;5.77;;
5199;SDS011;2619;47.868;11.892;2023-05-28T07:19:07;8.93;;;6.13;;
5199;SDS011;2619;47.868;11.892;2023-05-28T07:21:33;7.50;;;5.40;;
5199;SDS011;2619;47.868;11.892;2023-05-28T07:23:59;9.83;;;5.70;;
5199;SDS011;2619;47.868;11.892;2023-05-28T07:26:25;11.90;;;6.43;;
5199;SDS011;2619;47.868;11.892;2023-05-28T07:28:51;10.93;;;6.20;;
5199;SDS011;2619;47.868;11.892;2023-05-28T07:31:17;9.63;;;5.53;;
5199;SDS011;2619;47.868;11.892;2023-05-28T07:33:42;9.20;;;5.23;;
5199;SDS011;2619;47.868;11.892;2023-05-28T07:36:08;11.83;;;6.30;;
5199;SDS011;2619;47.868;11.892;2023-05-28T07:38:34;11.67;;;5.87;;
5199;SDS011;2619;47.868;11.892;2023-05-28T07:41:00;10.97;;;6.40;;
5199;SDS011;2619;47.868;11.892;2023-05-28T07:43:26;10.40;;;7.00;;
5199;SDS011;2619;47.868;11.892;2023-05-28T07:45:51;8.40;;;5.57;;
5199;SDS011;2619;47.868;11.892;2023-05-28T07:48:17;10.97;;;6.90;;
5199;SDS011;2619;47.868;11.892;2023-05-28T07:50:42;10.87;;;6.10;;
5199;SDS011;2619;47.868;11.892;2023-05-28T07:53:08;11.47;;;5.80;;
5199;SDS011;2619;47.868;11.892;2023-05-28T07:55:34;9.57;;;5.50;;
5199;SDS011;2619;47.868;11.892;2023-05-28T07:58:00;10.77;;;6.37;;
5199;SDS011;2619;47.868;11.892;2023-05-28T08:00:25;10.90;;;5.90;;
5199;SDS011;2619;47.868;11.892;2023-05-28T08:02:51;9.57;;;5.30;;
5199;SDS011;2619;47.868;11.892;2023-05-28T08:05:17;11.73;;;5.80;;
5199;SDS011;2619;47.868;11.892;2023-05-28T08:07:43;11.13;;;6.23;;
5199;SDS011;2619;47.868;11.892;2023-05-28T08:10:09;10.90;;;5.80;;
5199;SDS011;2619;47.868;11.892;2023-05-28T08:12:35;13.10;;;6.40;;
5199;SDS011;2619;47.868;11.892;2023-05-28T08:15:01;13.13;;;5.87;;
5199;SDS011;2619;47.868;11.892;2023-05-28T08:17:29;8.90;;;6.33;;
5199;SDS011;2619;47.868;11.892;2023-05-28T08:19:56;10.13;;;5.93;;
5199;SDS011;2619;47.868;11.892;2023-05-28T08:22:22;8.80;;;5.63;;
5199;SDS011;2619;47.868;11.892;2023-05-28T08:24:48;9.43;;;5.80;;
5199;SDS011;2619;47.868;11.892;2023-05-28T08:27:13;6.33;;;5.00;;
5199;SDS011;2619;47.868;11.892;2023-05-28T08:29:39;10.83;;;6.60;;
5199;SDS011;2619;47.868;11.892;2023-05-28T08:32:05;8.37;;;5.33;;
5199;SDS011;2619;47.868;11.892;2023-05-28T08:34:31;8.47;;;5.60;;
5199;SDS011;2619;47.868;11.892;2023-05-28T08:36:59;8.27;;;5.33;;
5199;SDS011;2619;47.868;11.892;2023-05-28T08:39:24;8.93;;;5.80;;
5199;SDS011;2619;47.868;11.892;2023-05-28T08:41:52;10.70;;;5.60;;
5199;SDS011;2619;47.868;11.892;2023-05-28T08:44:18;9.93;;;5.70;;
5199;SDS011;2619;47.868;11.892;2023-05-28T08:46:44;8.57;;;5.17;;
5199;SDS011;2619;47.868;11.892;2023-05-28T08:49:11;10.50;;;5.80;;
5199;SDS011;2619;47.868;11.892;2023-05-28T08:51:39;12.80;;;5.60;;
5199;SDS011;2619;47.868;11.892;2023-05-28T08:54:07;7.53;;;6.30;;
5199;SDS011;2619;47.868;11.892;2023-05-28T08:56:33;10.27;;;5.80;;
5199;SDS011;2619;47.868;11.892;2023-05-28T08:58:59;10.37;;;5.90;;
5199;SDS011;2619;47.868;11.892;2023-05-28T09:01:26;7.77;;;5.30;;
5199;SDS011;2619;47.868;11.892;2023-05-28T09:03:52;8.40;;;5.10;;
5199;SDS011;2619;47.868;11.892;2023-05-28T09:06:18;9.67;;;5.77;;
5199;SDS011;2619;47.868;11.892;2023-05-28T09:08:45;9.60;;;5.30;;
5199;SDS011;2619;47.868;11.892;2023-05-28T09:11:11;10.20;;;6.23;;
5199;SDS011;2619;47.868;11.892;2023-05-28T09:13:49;10.13;;;5.63;;
5199;SDS011;2619;47.868;11.892;2023-05-28T09:16:19;9.70;;;5.57;;
5199;SDS011;2619;47.868;11.892;2023-05-28T09:18:50;8.67;;;5.67;;
5199;SDS011;2619;47.868;11.892;2023-05-28T09:21:20;15.97;;;6.20;;
5199;SDS011;2619;47.868;11.892;2023-05-28T09:23:49;15.50;;;6.03;;
5199;SDS011;2619;47.868;11.892;2023-05-28T09:26:15;10.90;;;5.60;;
5199;SDS011;2619;47.868;11.892;2023-05-28T09:28:44;7.70;;;5.50;;
5199;SDS011;2619;47.868;11.892;2023-05-28T09:31:10;9.40;;;5.23;;
5199;SDS011;2619;47.868;11.892;2023-05-28T09:33:43;8.80;;;5.33;;
5199;SDS011;2619;47.868;11.892;2023-05-28T09:36:09;8.60;;;6.20;;
5199;SDS011;2619;47.868;11.892;2023-05-28T09:38:38;7.67;;;5.30;;
5199;SDS011;2619;47.868;11.892;2023-05-28T09:41:05;11.27;;;5.70;;
5199;SDS011;2619;47.868;11.892;2023-05-28T09:43:38;11.60;;;5.30;;
5199;SDS011;2619;47.868;11.892;2023-05-28T09:46:07;8.90;;;5.40;;
5199;SDS011;2619;47.868;11.892;2023-05-28T09:48:33;8.13;;;4.30;;
5199;SDS011;2619;47.868;11.892;2023-05-28T09:51:00;8.00;;;4.90;;
5199;SDS011;2619;47.868;11.892;2023-05-28T09:53:29;6.67;;;5.00;;
5199;SDS011;2619;47.868;11.892;2023-05-28T09:55:59;7.73;;;4.97;;
5199;SDS011;2619;47.868;11.892;2023-05-28T09:58:27;12.03;;;5.37;;
5199;SDS011;2619;47.868;11.892;2023-05-28T10:00:57;7.27;;;4.57;;
5199;SDS011;2619;47.868;11.892;2023-05-28T10:03:33;8.07;;;4.43;;
5199;SDS011;2619;47.868;11.892;2023-05-28T10:06:07;8.17;;;4.87;;
5199;SDS011;2619;47.868;11.892;2023-05-28T10:08:36;9.17;;;4.97;;
5199;SDS011;2619;47.868;11.892;2023-05-28T10:11:05;10.60;;;4.57;;
5199;SDS011;2619;47.868;11.892;2023-05-28T10:13:33;12.10;;;4.40;;
5199;SDS011;2619;47.868;11.892;2023-05-28T10:15:59;8.40;;;4.73;;
5199;SDS011;2619;47.868;11.892;2023-05-28T10:18:26;6.40;;;4.70;;
5199;SDS011;2619;47.868;11.892;2023-05-28T10:20:52;13.90;;;4.63;;
5199;SDS011;2619;47.868;11.892;2023-05-28T10:23:19;11.00;;;4.40;;
5199;SDS011;2619;47.868;11.892;2023-05-28T10:25:45;7.67;;;4.60;;
5199;SDS011;2619;47.868;11.892;2023-05-28T10:28:15;7.53;;;4.23;;
5199;SDS011;2619;47.868;11.892;2023-05-28T10:30:41;9.80;;;4.60;;
5199;SDS011;2619;47.868;11.892;2023-05-28T10:33:08;5.43;;;3.60;;
5199;SDS011;2619;47.868;11.892;2023-05-28T10:35:52;7.43;;;4.10;;
5199;SDS011;2619;47.868;11.892;2023-05-28T10:38:19;6.70;;;4.17;;
5199;SDS011;2619;47.868;11.892;2023-05-28T10:40:44;6.83;;;4.13;;
5199;SDS011;2619;47.868;11.892;2023-05-28T10:43:58;7.47;;;4.00;;
5199;SDS011;2619;47.868;11.892;2023-05-28T10:46:08;6.10;;;3.77;;
5199;SDS011;2619;47.868;11.892;2023-05-28T10:48:41;8.43;;;4.20;;
5199;SDS011;2619;47.868;11.892;2023-05-28T10:51:07;7.50;;;4.00;;
5199;SDS011;2619;47.868;11.892;2023-05-28T10:53:33;7.20;;;3.67;;
5199;SDS011;2619;47.868;11.892;2023-05-28T10:56:00;5.80;;;3.33;;
5199;SDS011;2619;47.868;11.892;2023-05-28T11:00:52;6.93;;;3.77;;
5199;SDS011;2619;47.868;11.892;2023-05-28T11:03:37;11.03;;;4.60;;
5199;SDS011;2619;47.868;11.892;2023-05-28T11:06:10;5.70;;;3.17;;
5199;SDS011;2619;47.868;11.892;2023-05-28T11:08:40;7.33;;;4.00;;
5199;SDS011;2619;47.868;11.892;2023-05-28T11:11:07;6.80;;;4.10;;
5199;SDS011;2619;47.868;11.892;2023-05-28T11:13:35;5.30;;;3.60;;
5199;SDS011;2619;47.868;11.892;2023-05-28T11:16:10;4.97;;;3.60;;
5199;SDS011;2619;47.868;11.892;2023-05-28T11:18:37;6.43;;;3.87;;
5199;SDS011;2619;47.868;11.892;2023-05-28T11:21:06;6.67;;;3.80;;
5199;SDS011;2619;47.868;11.892;2023-05-28T11:23:37;7.60;;;4.13;;
5199;SDS011;2619;47.868;11.892;2023-05-28T11:26:04;6.73;;;3.87;;
5199;SDS011;2619;47.868;11.892;2023-05-28T11:28:31;8.57;;;3.50;;
5199;SDS011;2619;47.868;11.892;2023-05-28T11:30:57;7.67;;;4.00;;
5199;SDS011;2619;47.868;11.892;2023-05-28T11:33:26;6.57;;;3.70;;
5199;SDS011;2619;47.868;11.892;2023-05-28T11:35:57;5.83;;;3.50;;
5199;SDS011;2619;47.868;11.892;2023-05-28T11:38:26;6.83;;;3.03;;
5199;SDS011;2619;47.868;11.892;2023-05-28T11:40:59;6.10;;;3.20;;
5199;SDS011;2619;47.868;11.892;2023-05-28T11:43:26;5.20;;;3.20;;
5199;SDS011;2619;47.868;11.892;2023-05-28T11:45:55;6.33;;;2.80;;
5199;SDS011;2619;47.868;11.892;2023-05-28T11:48:27;5.40;;;4.07;;
5199;SDS011;2619;47.868;11.892;2023-05-28T11:51:00;7.40;;;4.20;;
5199;SDS011;2619;47.868;11.892;2023-05-28T11:53:39;5.10;;;2.87;;
5199;SDS011;2619;47.868;11.892;2023-05-28T11:56:08;5.63;;;3.60;;
5199;SDS011;2619;47.868;11.892;2023-05-28T11:58:35;7.57;;;3.50;;
5199;SDS011;2619;47.868;11.892;2023-05-28T12:01:05;7.10;;;3.33;;
5199;SDS011;2619;47.868;11.892;2023-05-28T12:03:31;6.10;;;2.97;;
5199;SDS011;2619;47.868;11.892;2023-05-28T12:05:57;6.10;;;3.33;;
5199;SDS011;2619;47.868;11.892;2023-05-28T12:08:23;7.70;;;3.63;;
5199;SDS011;2619;47.868;11.892;2023-05-28T12:10:50;5.23;;;3.10;;
5199;SDS011;2619;47.868;11.892;2023-05-28T12:13:16;6.90;;;3.37;;
5199;SDS011;2619;47.868;11.892;2023-05-28T12:15:42;5.87;;;3.30;;
5199;SDS011;2619;47.868;11.892;2023-05-28T12:18:08;4.73;;;3.70;;
5199;SDS011;2619;47.868;11.892;2023-05-28T12:20:35;8.40;;;4.23;;
5199;SDS011;2619;47.868;11.892;2023-05-28T12:25:50;8.63;;;4.17;;
5199;SDS011;2619;47.868;11.892;2023-05-28T12:28:17;6.57;;;3.67;;
5199;SDS011;2619;47.868;11.892;2023-05-28T12:30:48;5.13;;;3.30;;
5199;SDS011;2619;47.868;11.892;2023-05-28T12:33:15;3.90;;;3.00;;
5199;SDS011;2619;47.868;11.892;2023-05-28T12:35:41;7.23;;;3.03;;
5199;SDS011;2619;47.868;11.892;2023-05-28T12:38:07;6.27;;;3.77;;
5199;SDS011;2619;47.868;11.892;2023-05-28T12:40:34;5.47;;;2.87;;
5199;SDS011;2619;47.868;11.892;2023-05-28T12:42:59;6.87;;;3.37;;
5199;SDS011;2619;47.868;11.892;2023-05-28T12:45:25;6.37;;;3.43;;
5199;SDS011;2619;47.868;11.892;2023-05-28T12:47:52;9.60;;;3.93;;
5199;SDS011;2619;47.868;11.892;2023-05-28T12:50:17;5.07;;;3.03;;
5199;SDS011;2619;47.868;11.892;2023-05-28T12:52:43;6.30;;;3.40;;
5199;SDS011;2619;47.868;11.892;2023-05-28T12:55:08;5.60;;;3.27;;
5199;SDS011;2619;47.868;11.892;2023-05-28T12:57:34;6.87;;;4.43;;
5199;SDS011;2619;47.868;11.892;2023-05-28T13:00:00;4.67;;;3.07;;
5199;SDS011;2619;47.868;11.892;2023-05-28T13:02:25;8.30;;;3.60;;
5199;SDS011;2619;47.868;11.892;2023-05-28T13:04:51;6.37;;;3.50;;
5199;SDS011;2619;47.868;11.892;2023-05-28T13:07:17;5.70;;;3.50;;
5199;SDS011;2619;47.868;11.892;2023-05-28T13:09:42;5.80;;;3.80;;
5199;SDS011;2619;47.868;11.892;2023-05-28T13:12:08;8.23;;;3.50;;
5199;SDS011;2619;47.868;11.892;2023-05-28T13:14:33;6.07;;;3.63;;
5199;SDS011;2619;47.868;11.892;2023-05-28T13:16:59;6.20;;;3.57;;
5199;SDS011;2619;47.868;11.892;2023-05-28T13:19:25;5.37;;;3.63;;
5199;SDS011;2619;47.868;11.892;2023-05-28T13:21:51;5.00;;;3.17;;
5199;SDS011;2619;47.868;11.892;2023-05-28T13:24:17;6.23;;;3.70;;
5199;SDS011;2619;47.868;11.892;2023-05-28T13:26:43;5.60;;;3.47;;
5199;SDS011;2619;47.868;11.892;2023-05-28T13:29:08;6.10;;;3.50;;
5199;SDS011;2619;47.868;11.892;2023-05-28T13:31:34;7.90;;;3.57;;
5199;SDS011;2619;47.868;11.892;2023-05-28T13:34:00;4.87;;;3.23;;
5199;SDS011;2619;47.868;11.892;2023-05-28T13:36:26;5.20;;;3.10;;
5199;SDS011;2619;47.868;11.892;2023-05-28T13:38:52;7.37;;;3.30;;
5199;SDS011;2619;47.868;11.892;2023-05-28T13:41:19;5.33;;;2.97;;
5199;SDS011;2619;47.868;11.892;2023-05-28T13:43:45;5.90;;;3.20;;
5199;SDS011;2619;47.868;11.892;2023-05-28T13:46:11;6.70;;;3.40;;
5199;SDS011;2619;47.868;11.892;2023-05-28T13:48:36;4.77;;;3.20;;
5199;SDS011;2619;47.868;11.892;2023-05-28T13:51:02;5.93;;;3.67;;
5199;SDS011;2619;47.868;11.892;2023-05-28T13:53:28;9.53;;;3.80;;
5199;SDS011;2619;47.868;11.892;2023-05-28T13:55:54;5.10;;;3.00;;
5199;SDS011;2619;47.868;11.892;2023-05-28T13:58:20;4.70;;;3.20;;
5199;SDS011;2619;47.868;11.892;2023-05-28T14:00:47;9.37;;;4.23;;
5199;SDS011;2619;47.868;11.892;2023-05-28T14:03:12;9.23;;;3.70;;
5199;SDS011;2619;47.868;11.892;2023-05-28T14:05:39;4.90;;;3.17;;
5199;SDS011;2619;47.868;11.892;2023-05-28T14:08:05;6.63;;;3.53;;
5199;SDS011;2619;47.868;11.892;2023-05-28T14:10:31;5.87;;;3.27;;
5199;SDS011;2619;47.868;11.892;2023-05-28T14:12:57;5.33;;;3.40;;
5199;SDS011;2619;47.868;11.892;2023-05-28T14:15:23;4.50;;;3.23;;
5199;SDS011;2619;47.868;11.892;2023-05-28T14:17:49;8.00;;;3.70;;
5199;SDS011;2619;47.868;11.892;2023-05-28T14:20:14;6.03;;;3.10;;
5199;SDS011;2619;47.868;11.892;2023-05-28T14:22:40;5.73;;;2.93;;
5199;SDS011;2619;47.868;11.892;2023-05-28T14:25:07;4.50;;;2.70;;
5199;SDS011;2619;47.868;11.892;2023-05-28T14:27:33;4.00;;;2.60;;
5199;SDS011;2619;47.868;11.892;2023-05-28T14:29:59;5.17;;;3.20;;
5199;SDS011;2619;47.868;11.892;2023-05-28T14:32:25;3.70;;;2.77;;
5199;SDS011;2619;47.868;11.892;2023-05-28T14:34:50;6.27;;;3.80;;
5199;SDS011;2619;47.868;11.892;2023-05-28T14:37:16;6.00;;;3.03;;
5199;SDS011;2619;47.868;11.892;2023-05-28T14:39:43;4.63;;;2.57;;
5199;SDS011;2619;47.868;11.892;2023-05-28T14:42:09;5.70;;;3.00;;
5199;SDS011;2619;47.868;11.892;2023-05-28T14:44:35;7.37;;;3.20;;
5199;SDS011;2619;47.868;11.892;2023-05-28T14:47:01;3.80;;;2.67;;
5199;SDS011;2619;47.868;11.892;2023-05-28T14:49:26;5.87;;;3.07;;
5199;SDS011;2619;47.868;11.892;2023-05-28T14:51:55;4.70;;;2.43;;
5199;SDS011;2619;47.868;11.892;2023-05-28T14:54:25;6.30;;;3.20;;
5199;SDS011;2619;47.868;11.892;2023-05-28T14:56:50;6.40;;;3.20;;